sensor_id;sensor_type;location;lat;lon;timestamp;P1;durP1;ratioP1;P2;durP2;ratioP2
30723;SDS011;17473;52.286;20.930;2024-01-30T00:01:06;46.07;;;21.77;;
30723;SDS011;17473;52.286;20.930;2024-01-30T00:03:33;47.30;;;21.80;;
30723;SDS011;17473;52.286;20.930;2024-01-30T00:06:00;44.17;;;21.77;;
30723;SDS011;17473;52.286;20.930;2024-01-30T00:08:27;43.27;;;21.67;;
30723;SDS011;17473;52.286;20.930;2024-01-30T00:10:54;45.27;;;20.77;;
30723;SDS011;17473;52.286;20.930;2024-01-30T00:13:21;43.00;;;19.80;;
30723;SDS011;17473;52.286;20.930;2024-01-30T00:15:49;41.73;;;20.27;;
30723;SDS011;17473;52.286;20.930;2024-01-30T00:18:16;43.47;;;21.03;;
30723;SDS011;17473;52.286;20.930;2024-01-30T00:20:42;42.10;;;20.17;;
30723;SDS011;17473;52.286;20.930;2024-01-30T00:23:10;38.13;;;20.83;;
30723;SDS011;17473;52.286;20.930;2024-01-30T00:25:36;45.07;;;21.23;;
30723;SDS011;17473;52.286;20.930;2024-01-30T00:28:03;42.10;;;20.63;;
30723;SDS011;17473;52.286;20.930;2024-01-30T00:30:30;42.63;;;22.07;;
30723;SDS011;17473;52.286;20.930;2024-01-30T00:32:57;42.27;;;20.70;;
30723;SDS011;17473;52.286;20.930;2024-01-30T00:35:24;47.20;;;20.63;;
30723;SDS011;17473;52.286;20.930;2024-01-30T00:37:51;44.33;;;21.80;;
30723;SDS011;17473;52.286;20.930;2024-01-30T00:40:18;40.97;;;21.33;;
30723;SDS011;17473;52.286;20.930;2024-01-30T00:42:45;43.40;;;21.40;;
30723;SDS011;17473;52.286;20.930;2024-01-30T00:45:13;41.30;;;21.37;;
30723;SDS011;17473;52.286;20.930;2024-01-30T00:47:41;39.97;;;20.67;;
30723;SDS011;17473;52.286;20.930;2024-01-30T00:50:08;42.73;;;20.63;;
30723;SDS011;17473;52.286;20.930;2024-01-30T00:52:35;41.93;;;20.00;;
30723;SDS011;17473;52.286;20.930;2024-01-30T00:55:02;40.63;;;18.77;;
30723;SDS011;17473;52.286;20.930;2024-01-30T00:57:30;48.67;;;20.70;;
30723;SDS011;17473;52.286;20.930;2024-01-30T00:59:57;41.50;;;19.83;;
30723;SDS011;17473;52.286;20.930;2024-01-30T01:02:24;44.80;;;20.57;;
30723;SDS011;17473;52.286;20.930;2024-01-30T01:04:50;49.97;;;21.23;;
30723;SDS011;17473;52.286;20.930;2024-01-30T01:07:17;39.20;;;20.27;;
30723;SDS011;17473;52.286;20.930;2024-01-30T01:09:44;42.70;;;21.67;;
30723;SDS011;17473;52.286;20.930;2024-01-30T01:12:11;43.37;;;21.87;;
30723;SDS011;17473;52.286;20.930;2024-01-30T01:14:38;44.67;;;20.80;;
30723;SDS011;17473;52.286;20.930;2024-01-30T01:17:05;45.57;;;20.87;;
30723;SDS011;17473;52.286;20.930;2024-01-30T01:19:32;46.43;;;21.93;;
30723;SDS011;17473;52.286;20.930;2024-01-30T01:21:59;41.43;;;20.73;;
30723;SDS011;17473;52.286;20.930;2024-01-30T01:24:26;46.47;;;21.70;;
30723;SDS011;17473;52.286;20.930;2024-01-30T01:26:53;44.70;;;21.37;;
30723;SDS011;17473;52.286;20.930;2024-01-30T01:29:20;46.20;;;21.37;;
30723;SDS011;17473;52.286;20.930;2024-01-30T01:31:55;47.40;;;21.73;;
30723;SDS011;17473;52.286;20.930;2024-01-30T01:34:22;45.20;;;20.73;;
30723;SDS011;17473;52.286;20.930;2024-01-30T01:36:55;42.27;;;21.33;;
30723;SDS011;17473;52.286;20.930;2024-01-30T01:39:22;42.50;;;21.77;;
30723;SDS011;17473;52.286;20.930;2024-01-30T01:41:52;43.00;;;21.37;;
30723;SDS011;17473;52.286;20.930;2024-01-30T01:44:19;41.73;;;20.00;;
30723;SDS011;17473;52.286;20.930;2024-01-30T01:46:46;43.03;;;22.70;;
30723;SDS011;17473;52.286;20.930;2024-01-30T01:49:14;45.67;;;22.40;;
30723;SDS011;17473;52.286;20.930;2024-01-30T01:51:42;46.40;;;21.53;;
30723;SDS011;17473;52.286;20.930;2024-01-30T01:54:11;45.73;;;21.60;;
30723;SDS011;17473;52.286;20.930;2024-01-30T01:56:38;48.20;;;21.47;;
30723;SDS011;17473;52.286;20.930;2024-01-30T01:59:06;42.07;;;20.73;;
30723;SDS011;17473;52.286;20.930;2024-01-30T02:01:38;42.83;;;21.33;;
30723;SDS011;17473;52.286;20.930;2024-01-30T02:04:07;45.00;;;20.37;;
30723;SDS011;17473;52.286;20.930;2024-01-30T02:06:34;48.10;;;22.03;;
30723;SDS011;17473;52.286;20.930;2024-01-30T02:09:01;41.93;;;20.73;;
30723;SDS011;17473;52.286;20.930;2024-01-30T02:11:31;48.93;;;22.20;;
30723;SDS011;17473;52.286;20.930;2024-01-30T02:14:02;42.90;;;20.90;;
30723;SDS011;17473;52.286;20.930;2024-01-30T02:16:31;41.73;;;21.13;;
30723;SDS011;17473;52.286;20.930;2024-01-30T02:18:58;41.67;;;20.37;;
30723;SDS011;17473;52.286;20.930;2024-01-30T02:21:25;42.47;;;21.57;;
30723;SDS011;17473;52.286;20.930;2024-01-30T02:23:52;37.43;;;19.70;;
30723;SDS011;17473;52.286;20.930;2024-01-30T02:26:21;37.13;;;19.53;;
30723;SDS011;17473;52.286;20.930;2024-01-30T02:28:48;37.97;;;20.13;;
30723;SDS011;17473;52.286;20.930;2024-01-30T02:31:15;41.37;;;19.80;;
30723;SDS011;17473;52.286;20.930;2024-01-30T02:33:42;41.40;;;19.80;;
30723;SDS011;17473;52.286;20.930;2024-01-30T02:36:09;40.13;;;20.17;;
30723;SDS011;17473;52.286;20.930;2024-01-30T02:38:36;42.67;;;20.60;;
30723;SDS011;17473;52.286;20.930;2024-01-30T02:41:03;42.97;;;20.60;;
30723;SDS011;17473;52.286;20.930;2024-01-30T02:43:30;41.17;;;20.07;;
30723;SDS011;17473;52.286;20.930;2024-01-30T02:45:56;41.63;;;19.63;;
30723;SDS011;17473;52.286;20.930;2024-01-30T02:48:26;41.93;;;20.47;;
30723;SDS011;17473;52.286;20.930;2024-01-30T02:50:53;43.50;;;19.97;;
30723;SDS011;17473;52.286;20.930;2024-01-30T02:53:20;42.23;;;20.13;;
30723;SDS011;17473;52.286;20.930;2024-01-30T02:55:47;42.53;;;19.10;;
30723;SDS011;17473;52.286;20.930;2024-01-30T02:58:13;41.07;;;19.77;;
30723;SDS011;17473;52.286;20.930;2024-01-30T03:00:40;43.00;;;20.03;;
30723;SDS011;17473;52.286;20.930;2024-01-30T03:03:07;38.90;;;18.90;;
30723;SDS011;17473;52.286;20.930;2024-01-30T03:05:34;43.23;;;18.23;;
30723;SDS011;17473;52.286;20.930;2024-01-30T03:08:02;40.63;;;19.37;;
30723;SDS011;17473;52.286;20.930;2024-01-30T03:10:31;40.53;;;19.60;;
30723;SDS011;17473;52.286;20.930;2024-01-30T03:12:58;42.83;;;20.40;;
30723;SDS011;17473;52.286;20.930;2024-01-30T03:15:25;42.53;;;20.43;;
30723;SDS011;17473;52.286;20.930;2024-01-30T03:17:53;41.37;;;20.23;;
30723;SDS011;17473;52.286;20.930;2024-01-30T03:20:20;44.00;;;21.10;;
30723;SDS011;17473;52.286;20.930;2024-01-30T03:22:47;41.93;;;20.03;;
30723;SDS011;17473;52.286;20.930;2024-01-30T03:25:14;36.50;;;19.53;;
30723;SDS011;17473;52.286;20.930;2024-01-30T03:27:41;39.27;;;19.33;;
30723;SDS011;17473;52.286;20.930;2024-01-30T03:30:08;45.57;;;20.30;;
30723;SDS011;17473;52.286;20.930;2024-01-30T03:32:35;43.40;;;19.30;;
30723;SDS011;17473;52.286;20.930;2024-01-30T03:35:02;34.57;;;18.43;;
30723;SDS011;17473;52.286;20.930;2024-01-30T03:37:30;41.50;;;19.33;;
30723;SDS011;17473;52.286;20.930;2024-01-30T03:39:57;37.07;;;19.57;;
30723;SDS011;17473;52.286;20.930;2024-01-30T03:42:24;43.17;;;20.20;;
30723;SDS011;17473;52.286;20.930;2024-01-30T03:44:51;43.33;;;19.87;;
30723;SDS011;17473;52.286;20.930;2024-01-30T03:47:20;38.27;;;19.37;;
30723;SDS011;17473;52.286;20.930;2024-01-30T03:49:47;39.40;;;18.53;;
30723;SDS011;17473;52.286;20.930;2024-01-30T03:52:14;41.27;;;19.13;;
30723;SDS011;17473;52.286;20.930;2024-01-30T03:54:41;37.83;;;17.97;;
30723;SDS011;17473;52.286;20.930;2024-01-30T03:57:08;37.43;;;18.93;;
30723;SDS011;17473;52.286;20.930;2024-01-30T03:59:35;45.97;;;20.93;;
30723;SDS011;17473;52.286;20.930;2024-01-30T04:02:02;40.27;;;19.97;;
30723;SDS011;17473;52.286;20.930;2024-01-30T04:04:29;47.97;;;19.93;;
30723;SDS011;17473;52.286;20.930;2024-01-30T04:06:56;35.53;;;17.57;;
30723;SDS011;17473;52.286;20.930;2024-01-30T04:09:23;43.67;;;19.93;;
30723;SDS011;17473;52.286;20.930;2024-01-30T04:11:50;36.10;;;17.57;;
30723;SDS011;17473;52.286;20.930;2024-01-30T04:14:17;38.10;;;17.97;;
30723;SDS011;17473;52.286;20.930;2024-01-30T04:16:44;37.20;;;17.87;;
30723;SDS011;17473;52.286;20.930;2024-01-30T04:19:11;36.23;;;17.57;;
30723;SDS011;17473;52.286;20.930;2024-01-30T04:21:38;40.17;;;19.03;;
30723;SDS011;17473;52.286;20.930;2024-01-30T04:24:05;37.37;;;19.13;;
30723;SDS011;17473;52.286;20.930;2024-01-30T04:26:32;38.83;;;18.17;;
30723;SDS011;17473;52.286;20.930;2024-01-30T04:28:59;43.40;;;18.33;;
30723;SDS011;17473;52.286;20.930;2024-01-30T04:31:25;40.60;;;19.30;;
30723;SDS011;17473;52.286;20.930;2024-01-30T04:33:52;34.60;;;17.23;;
30723;SDS011;17473;52.286;20.930;2024-01-30T04:36:20;38.23;;;19.13;;
30723;SDS011;17473;52.286;20.930;2024-01-30T04:38:46;38.50;;;18.37;;
30723;SDS011;17473;52.286;20.930;2024-01-30T04:41:13;39.50;;;18.43;;
30723;SDS011;17473;52.286;20.930;2024-01-30T04:43:40;35.80;;;19.03;;
30723;SDS011;17473;52.286;20.930;2024-01-30T04:46:07;38.50;;;19.80;;
30723;SDS011;17473;52.286;20.930;2024-01-30T04:48:34;38.93;;;18.73;;
30723;SDS011;17473;52.286;20.930;2024-01-30T04:51:01;41.73;;;19.00;;
30723;SDS011;17473;52.286;20.930;2024-01-30T04:53:30;36.40;;;17.77;;
30723;SDS011;17473;52.286;20.930;2024-01-30T04:55:58;36.20;;;18.57;;
30723;SDS011;17473;52.286;20.930;2024-01-30T04:58:25;39.60;;;18.17;;
30723;SDS011;17473;52.286;20.930;2024-01-30T05:00:52;41.27;;;18.33;;
30723;SDS011;17473;52.286;20.930;2024-01-30T05:03:19;39.90;;;19.17;;
30723;SDS011;17473;52.286;20.930;2024-01-30T05:05:46;38.53;;;18.23;;
30723;SDS011;17473;52.286;20.930;2024-01-30T05:08:13;40.33;;;19.57;;
30723;SDS011;17473;52.286;20.930;2024-01-30T05:10:40;36.30;;;18.27;;
30723;SDS011;17473;52.286;20.930;2024-01-30T05:13:07;35.63;;;18.03;;
30723;SDS011;17473;52.286;20.930;2024-01-30T05:15:34;40.50;;;18.40;;
30723;SDS011;17473;52.286;20.930;2024-01-30T05:18:01;36.27;;;18.80;;
30723;SDS011;17473;52.286;20.930;2024-01-30T05:20:28;33.70;;;18.93;;
30723;SDS011;17473;52.286;20.930;2024-01-30T05:22:55;38.77;;;18.90;;
30723;SDS011;17473;52.286;20.930;2024-01-30T05:25:22;43.07;;;18.13;;
30723;SDS011;17473;52.286;20.930;2024-01-30T05:27:50;37.60;;;18.97;;
30723;SDS011;17473;52.286;20.930;2024-01-30T05:30:16;38.80;;;19.20;;
30723;SDS011;17473;52.286;20.930;2024-01-30T05:32:43;42.53;;;18.80;;
30723;SDS011;17473;52.286;20.930;2024-01-30T05:35:10;38.23;;;19.13;;
30723;SDS011;17473;52.286;20.930;2024-01-30T05:37:37;37.87;;;18.40;;
30723;SDS011;17473;52.286;20.930;2024-01-30T05:40:04;37.63;;;18.00;;
30723;SDS011;17473;52.286;20.930;2024-01-30T05:42:32;37.93;;;18.43;;
30723;SDS011;17473;52.286;20.930;2024-01-30T05:44:59;38.53;;;18.50;;
30723;SDS011;17473;52.286;20.930;2024-01-30T05:47:25;39.63;;;18.07;;
30723;SDS011;17473;52.286;20.930;2024-01-30T05:49:53;39.30;;;18.43;;
30723;SDS011;17473;52.286;20.930;2024-01-30T05:52:19;36.37;;;17.33;;
30723;SDS011;17473;52.286;20.930;2024-01-30T05:54:46;38.50;;;18.27;;
30723;SDS011;17473;52.286;20.930;2024-01-30T05:57:13;38.50;;;18.83;;
30723;SDS011;17473;52.286;20.930;2024-01-30T05:59:40;33.97;;;16.83;;
30723;SDS011;17473;52.286;20.930;2024-01-30T06:02:07;38.27;;;18.63;;
30723;SDS011;17473;52.286;20.930;2024-01-30T06:04:34;38.63;;;18.67;;
30723;SDS011;17473;52.286;20.930;2024-01-30T06:07:01;34.80;;;17.47;;
30723;SDS011;17473;52.286;20.930;2024-01-30T06:09:29;34.67;;;17.60;;
30723;SDS011;17473;52.286;20.930;2024-01-30T06:11:56;39.07;;;17.90;;
30723;SDS011;17473;52.286;20.930;2024-01-30T06:14:23;39.77;;;18.10;;
30723;SDS011;17473;52.286;20.930;2024-01-30T06:16:50;42.07;;;18.97;;
30723;SDS011;17473;52.286;20.930;2024-01-30T06:19:17;36.90;;;19.17;;
30723;SDS011;17473;52.286;20.930;2024-01-30T06:21:44;45.57;;;19.40;;
30723;SDS011;17473;52.286;20.930;2024-01-30T06:24:11;36.43;;;18.50;;
30723;SDS011;17473;52.286;20.930;2024-01-30T06:26:38;40.37;;;19.47;;
30723;SDS011;17473;52.286;20.930;2024-01-30T06:29:05;40.47;;;18.20;;
30723;SDS011;17473;52.286;20.930;2024-01-30T06:31:39;34.27;;;17.90;;
30723;SDS011;17473;52.286;20.930;2024-01-30T06:34:10;42.13;;;18.37;;
30723;SDS011;17473;52.286;20.930;2024-01-30T06:36:38;44.33;;;19.80;;
30723;SDS011;17473;52.286;20.930;2024-01-30T06:39:05;33.53;;;17.17;;
30723;SDS011;17473;52.286;20.930;2024-01-30T06:41:32;37.47;;;18.63;;
30723;SDS011;17473;52.286;20.930;2024-01-30T06:43:59;36.67;;;17.57;;
30723;SDS011;17473;52.286;20.930;2024-01-30T06:46:27;36.30;;;17.97;;
30723;SDS011;17473;52.286;20.930;2024-01-30T06:48:54;40.43;;;17.93;;
30723;SDS011;17473;52.286;20.930;2024-01-30T06:51:21;39.13;;;17.90;;
30723;SDS011;17473;52.286;20.930;2024-01-30T06:53:48;33.70;;;17.90;;
30723;SDS011;17473;52.286;20.930;2024-01-30T06:56:15;39.67;;;17.47;;
30723;SDS011;17473;52.286;20.930;2024-01-30T06:58:47;38.63;;;18.50;;
30723;SDS011;17473;52.286;20.930;2024-01-30T07:01:15;38.17;;;18.73;;
30723;SDS011;17473;52.286;20.930;2024-01-30T07:03:42;34.87;;;18.23;;
30723;SDS011;17473;52.286;20.930;2024-01-30T07:06:10;34.87;;;17.90;;
30723;SDS011;17473;52.286;20.930;2024-01-30T07:08:37;37.87;;;16.93;;
30723;SDS011;17473;52.286;20.930;2024-01-30T07:11:05;37.30;;;18.37;;
30723;SDS011;17473;52.286;20.930;2024-01-30T07:13:32;37.27;;;17.13;;
30723;SDS011;17473;52.286;20.930;2024-01-30T07:16:00;38.20;;;18.10;;
30723;SDS011;17473;52.286;20.930;2024-01-30T07:18:27;34.83;;;17.53;;
30723;SDS011;17473;52.286;20.930;2024-01-30T07:20:54;32.40;;;16.77;;
30723;SDS011;17473;52.286;20.930;2024-01-30T07:23:21;36.80;;;17.47;;
30723;SDS011;17473;52.286;20.930;2024-01-30T07:25:49;34.57;;;16.43;;
30723;SDS011;17473;52.286;20.930;2024-01-30T07:28:16;39.57;;;18.70;;
30723;SDS011;17473;52.286;20.930;2024-01-30T07:30:43;34.37;;;16.20;;
30723;SDS011;17473;52.286;20.930;2024-01-30T07:33:11;33.73;;;17.47;;
30723;SDS011;17473;52.286;20.930;2024-01-30T07:35:38;32.13;;;16.23;;
30723;SDS011;17473;52.286;20.930;2024-01-30T07:38:05;35.83;;;16.87;;
30723;SDS011;17473;52.286;20.930;2024-01-30T07:40:32;34.83;;;18.20;;
30723;SDS011;17473;52.286;20.930;2024-01-30T07:42:59;39.40;;;16.97;;
30723;SDS011;17473;52.286;20.930;2024-01-30T07:45:27;34.33;;;16.20;;
30723;SDS011;17473;52.286;20.930;2024-01-30T07:47:59;28.93;;;15.90;;
30723;SDS011;17473;52.286;20.930;2024-01-30T07:50:26;33.13;;;17.13;;
30723;SDS011;17473;52.286;20.930;2024-01-30T07:52:55;32.57;;;16.13;;
30723;SDS011;17473;52.286;20.930;2024-01-30T07:55:23;35.40;;;16.37;;
30723;SDS011;17473;52.286;20.930;2024-01-30T07:57:58;38.97;;;16.57;;
30723;SDS011;17473;52.286;20.930;2024-01-30T08:00:25;31.63;;;17.40;;
30723;SDS011;17473;52.286;20.930;2024-01-30T08:02:53;31.27;;;16.63;;
30723;SDS011;17473;52.286;20.930;2024-01-30T08:05:22;31.03;;;16.93;;
30723;SDS011;17473;52.286;20.930;2024-01-30T08:07:50;31.87;;;16.33;;
30723;SDS011;17473;52.286;20.930;2024-01-30T08:10:17;31.80;;;16.10;;
30723;SDS011;17473;52.286;20.930;2024-01-30T08:12:47;33.80;;;17.20;;
30723;SDS011;17473;52.286;20.930;2024-01-30T08:15:14;31.40;;;16.07;;
30723;SDS011;17473;52.286;20.930;2024-01-30T08:17:41;41.87;;;17.87;;
30723;SDS011;17473;52.286;20.930;2024-01-30T08:20:08;39.00;;;18.53;;
30723;SDS011;17473;52.286;20.930;2024-01-30T08:22:40;38.50;;;17.60;;
30723;SDS011;17473;52.286;20.930;2024-01-30T08:25:07;37.13;;;18.10;;
30723;SDS011;17473;52.286;20.930;2024-01-30T08:27:36;30.70;;;16.20;;
30723;SDS011;17473;52.286;20.930;2024-01-30T08:30:07;31.00;;;17.23;;
30723;SDS011;17473;52.286;20.930;2024-01-30T08:32:34;32.30;;;16.40;;
30723;SDS011;17473;52.286;20.930;2024-01-30T08:35:01;29.40;;;15.57;;
30723;SDS011;17473;52.286;20.930;2024-01-30T08:37:33;30.90;;;15.23;;
30723;SDS011;17473;52.286;20.930;2024-01-30T08:40:00;28.00;;;15.35;;
30723;SDS011;17473;52.286;20.930;2024-01-30T08:42:28;26.17;;;15.15;;
30723;SDS011;17473;52.286;20.930;2024-01-30T08:44:55;29.30;;;15.05;;
30723;SDS011;17473;52.286;20.930;2024-01-30T08:47:22;31.27;;;14.27;;
30723;SDS011;17473;52.286;20.930;2024-01-30T08:49:49;26.13;;;15.00;;
30723;SDS011;17473;52.286;20.930;2024-01-30T08:52:16;32.25;;;15.00;;
30723;SDS011;17473;52.286;20.930;2024-01-30T08:54:44;29.77;;;14.98;;
30723;SDS011;17473;52.286;20.930;2024-01-30T08:57:11;31.63;;;15.00;;
30723;SDS011;17473;52.286;20.930;2024-01-30T08:59:37;29.13;;;15.48;;
30723;SDS011;17473;52.286;20.930;2024-01-30T09:02:04;30.52;;;15.75;;
30723;SDS011;17473;52.286;20.930;2024-01-30T09:04:38;29.80;;;13.68;;
30723;SDS011;17473;52.286;20.930;2024-01-30T09:07:06;27.80;;;14.32;;
30723;SDS011;17473;52.286;20.930;2024-01-30T09:09:39;27.75;;;15.38;;
30723;SDS011;17473;52.286;20.930;2024-01-30T09:12:07;25.35;;;15.30;;
30723;SDS011;17473;52.286;20.930;2024-01-30T09:14:38;28.75;;;14.57;;
30723;SDS011;17473;52.286;20.930;2024-01-30T09:17:06;32.00;;;15.02;;
30723;SDS011;17473;52.286;20.930;2024-01-30T09:19:33;23.40;;;13.50;;
30723;SDS011;17473;52.286;20.930;2024-01-30T09:22:01;28.02;;;14.48;;
30723;SDS011;17473;52.286;20.930;2024-01-30T09:24:28;25.23;;;14.32;;
30723;SDS011;17473;52.286;20.930;2024-01-30T09:26:55;35.75;;;14.57;;
30723;SDS011;17473;52.286;20.930;2024-01-30T09:29:21;27.40;;;13.60;;
30723;SDS011;17473;52.286;20.930;2024-01-30T09:31:48;26.02;;;13.73;;
30723;SDS011;17473;52.286;20.930;2024-01-30T09:34:16;24.65;;;13.13;;
30723;SDS011;17473;52.286;20.930;2024-01-30T09:36:43;22.52;;;12.32;;
30723;SDS011;17473;52.286;20.930;2024-01-30T09:39:10;26.88;;;13.80;;
30723;SDS011;17473;52.286;20.930;2024-01-30T09:41:40;26.67;;;13.25;;
30723;SDS011;17473;52.286;20.930;2024-01-30T09:44:17;23.85;;;12.48;;
30723;SDS011;17473;52.286;20.930;2024-01-30T09:46:47;24.98;;;11.48;;
30723;SDS011;17473;52.286;20.930;2024-01-30T09:49:14;22.02;;;12.30;;
30723;SDS011;17473;52.286;20.930;2024-01-30T09:51:45;24.58;;;12.98;;
30723;SDS011;17473;52.286;20.930;2024-01-30T09:54:13;24.92;;;11.80;;
30723;SDS011;17473;52.286;20.930;2024-01-30T09:56:41;28.02;;;11.40;;
30723;SDS011;17473;52.286;20.930;2024-01-30T09:59:08;20.77;;;10.82;;
30723;SDS011;17473;52.286;20.930;2024-01-30T10:01:35;30.80;;;12.10;;
30723;SDS011;17473;52.286;20.930;2024-01-30T10:04:03;17.95;;;10.18;;
30723;SDS011;17473;52.286;20.930;2024-01-30T10:06:31;22.02;;;11.23;;
30723;SDS011;17473;52.286;20.930;2024-01-30T10:08:58;22.73;;;12.27;;
30723;SDS011;17473;52.286;20.930;2024-01-30T10:11:25;23.67;;;11.13;;
30723;SDS011;17473;52.286;20.930;2024-01-30T10:13:52;20.73;;;11.27;;
30723;SDS011;17473;52.286;20.930;2024-01-30T10:16:19;20.13;;;10.45;;
30723;SDS011;17473;52.286;20.930;2024-01-30T10:18:46;21.92;;;10.10;;
30723;SDS011;17473;52.286;20.930;2024-01-30T10:21:14;26.02;;;10.95;;
30723;SDS011;17473;52.286;20.930;2024-01-30T10:23:40;19.73;;;10.73;;
30723;SDS011;17473;52.286;20.930;2024-01-30T10:26:08;24.88;;;10.35;;
30723;SDS011;17473;52.286;20.930;2024-01-30T10:28:35;19.55;;;10.10;;
30723;SDS011;17473;52.286;20.930;2024-01-30T10:31:02;22.65;;;11.18;;
30723;SDS011;17473;52.286;20.930;2024-01-30T10:33:33;15.82;;;8.93;;
30723;SDS011;17473;52.286;20.930;2024-01-30T10:36:03;18.40;;;10.85;;
30723;SDS011;17473;52.286;20.930;2024-01-30T10:38:31;18.67;;;10.55;;
30723;SDS011;17473;52.286;20.930;2024-01-30T10:41:02;17.17;;;10.55;;
30723;SDS011;17473;52.286;20.930;2024-01-30T10:43:38;19.27;;;11.05;;
30723;SDS011;17473;52.286;20.930;2024-01-30T10:46:13;22.20;;;11.15;;
30723;SDS011;17473;52.286;20.930;2024-01-30T10:48:46;19.25;;;11.57;;
30723;SDS011;17473;52.286;20.930;2024-01-30T10:51:17;17.73;;;10.13;;
30723;SDS011;17473;52.286;20.930;2024-01-30T10:53:46;20.15;;;10.20;;
30723;SDS011;17473;52.286;20.930;2024-01-30T10:56:13;15.88;;;9.55;;
30723;SDS011;17473;52.286;20.930;2024-01-30T10:58:40;19.27;;;10.80;;
30723;SDS011;17473;52.286;20.930;2024-01-30T11:01:07;17.85;;;9.60;;
30723;SDS011;17473;52.286;20.930;2024-01-30T11:03:34;21.45;;;9.93;;
30723;SDS011;17473;52.286;20.930;2024-01-30T11:06:02;16.52;;;8.98;;
30723;SDS011;17473;52.286;20.930;2024-01-30T11:08:31;19.13;;;9.75;;
30723;SDS011;17473;52.286;20.930;2024-01-30T11:10:58;19.92;;;9.68;;
30723;SDS011;17473;52.286;20.930;2024-01-30T11:13:29;20.55;;;9.40;;
30723;SDS011;17473;52.286;20.930;2024-01-30T11:16:03;21.27;;;9.50;;
30723;SDS011;17473;52.286;20.930;2024-01-30T11:18:32;25.13;;;10.50;;
30723;SDS011;17473;52.286;20.930;2024-01-30T11:20:59;21.95;;;11.38;;
30723;SDS011;17473;52.286;20.930;2024-01-30T11:23:28;19.55;;;11.07;;
30723;SDS011;17473;52.286;20.930;2024-01-30T11:25:56;17.10;;;9.43;;
30723;SDS011;17473;52.286;20.930;2024-01-30T11:28:24;17.75;;;10.30;;
30723;SDS011;17473;52.286;20.930;2024-01-30T11:30:51;22.77;;;10.35;;
30723;SDS011;17473;52.286;20.930;2024-01-30T11:33:28;23.88;;;11.05;;
30723;SDS011;17473;52.286;20.930;2024-01-30T11:36:00;16.77;;;10.02;;
30723;SDS011;17473;52.286;20.930;2024-01-30T11:38:33;27.98;;;10.77;;
30723;SDS011;17473;52.286;20.930;2024-01-30T11:41:00;23.70;;;11.15;;
30723;SDS011;17473;52.286;20.930;2024-01-30T11:43:27;23.65;;;10.43;;
30723;SDS011;17473;52.286;20.930;2024-01-30T11:45:54;20.02;;;9.88;;
30723;SDS011;17473;52.286;20.930;2024-01-30T11:48:21;30.75;;;11.55;;
30723;SDS011;17473;52.286;20.930;2024-01-30T11:50:48;27.17;;;10.98;;
30723;SDS011;17473;52.286;20.930;2024-01-30T11:53:16;29.63;;;12.18;;
30723;SDS011;17473;52.286;20.930;2024-01-30T11:55:49;26.38;;;11.82;;
30723;SDS011;17473;52.286;20.930;2024-01-30T11:58:16;34.45;;;12.15;;
30723;SDS011;17473;52.286;20.930;2024-01-30T12:00:52;40.90;;;13.40;;
30723;SDS011;17473;52.286;20.930;2024-01-30T12:03:20;19.33;;;10.77;;
30723;SDS011;17473;52.286;20.930;2024-01-30T12:05:47;29.88;;;11.50;;
30723;SDS011;17473;52.286;20.930;2024-01-30T12:08:22;25.48;;;10.90;;
30723;SDS011;17473;52.286;20.930;2024-01-30T12:10:58;23.25;;;10.50;;
30723;SDS011;17473;52.286;20.930;2024-01-30T12:13:28;22.95;;;10.30;;
30723;SDS011;17473;52.286;20.930;2024-01-30T12:15:59;25.60;;;11.93;;
30723;SDS011;17473;52.286;20.930;2024-01-30T12:18:27;23.58;;;10.77;;
30723;SDS011;17473;52.286;20.930;2024-01-30T12:21:00;35.38;;;10.80;;
30723;SDS011;17473;52.286;20.930;2024-01-30T12:23:27;36.35;;;11.68;;
30723;SDS011;17473;52.286;20.930;2024-01-30T12:25:55;36.47;;;11.68;;
30723;SDS011;17473;52.286;20.930;2024-01-30T12:28:24;32.40;;;11.70;;
30723;SDS011;17473;52.286;20.930;2024-01-30T12:30:54;28.75;;;10.88;;
30723;SDS011;17473;52.286;20.930;2024-01-30T12:33:28;21.55;;;11.60;;
30723;SDS011;17473;52.286;20.930;2024-01-30T12:35:56;33.25;;;11.90;;
30723;SDS011;17473;52.286;20.930;2024-01-30T12:38:29;22.42;;;11.45;;
30723;SDS011;17473;52.286;20.930;2024-01-30T12:40:56;20.95;;;10.98;;
30723;SDS011;17473;52.286;20.930;2024-01-30T12:43:23;22.17;;;10.75;;
30723;SDS011;17473;52.286;20.930;2024-01-30T12:46:03;24.13;;;10.75;;
30723;SDS011;17473;52.286;20.930;2024-01-30T12:48:30;30.20;;;12.35;;
30723;SDS011;17473;52.286;20.930;2024-01-30T12:50:58;36.40;;;12.88;;
30723;SDS011;17473;52.286;20.930;2024-01-30T12:53:25;23.35;;;12.15;;
30723;SDS011;17473;52.286;20.930;2024-01-30T12:55:52;20.02;;;10.68;;
30723;SDS011;17473;52.286;20.930;2024-01-30T12:58:20;20.17;;;11.57;;
30723;SDS011;17473;52.286;20.930;2024-01-30T13:00:47;24.83;;;11.50;;
30723;SDS011;17473;52.286;20.930;2024-01-30T13:03:15;18.33;;;10.07;;
30723;SDS011;17473;52.286;20.930;2024-01-30T13:05:42;25.02;;;12.05;;
30723;SDS011;17473;52.286;20.930;2024-01-30T13:08:09;21.83;;;10.48;;
30723;SDS011;17473;52.286;20.930;2024-01-30T13:10:36;22.48;;;10.88;;
30723;SDS011;17473;52.286;20.930;2024-01-30T13:13:03;21.30;;;10.88;;
30723;SDS011;17473;52.286;20.930;2024-01-30T13:15:32;22.52;;;11.40;;
30723;SDS011;17473;52.286;20.930;2024-01-30T13:17:59;19.98;;;11.02;;
30723;SDS011;17473;52.286;20.930;2024-01-30T13:20:26;21.88;;;11.95;;
30723;SDS011;17473;52.286;20.930;2024-01-30T13:22:53;21.30;;;9.80;;
30723;SDS011;17473;52.286;20.930;2024-01-30T13:25:20;20.23;;;10.52;;
30723;SDS011;17473;52.286;20.930;2024-01-30T13:27:47;22.23;;;11.18;;
30723;SDS011;17473;52.286;20.930;2024-01-30T13:30:14;24.38;;;11.50;;
30723;SDS011;17473;52.286;20.930;2024-01-30T13:32:41;27.60;;;9.93;;
30723;SDS011;17473;52.286;20.930;2024-01-30T13:35:10;22.88;;;11.38;;
30723;SDS011;17473;52.286;20.930;2024-01-30T13:37:38;27.35;;;10.93;;
30723;SDS011;17473;52.286;20.930;2024-01-30T13:40:05;19.90;;;10.70;;
30723;SDS011;17473;52.286;20.930;2024-01-30T13:42:39;24.42;;;11.50;;
30723;SDS011;17473;52.286;20.930;2024-01-30T13:45:06;22.38;;;11.18;;
30723;SDS011;17473;52.286;20.930;2024-01-30T13:47:36;23.52;;;10.73;;
30723;SDS011;17473;52.286;20.930;2024-01-30T13:50:03;21.98;;;11.10;;
30723;SDS011;17473;52.286;20.930;2024-01-30T13:52:32;22.40;;;11.70;;
30723;SDS011;17473;52.286;20.930;2024-01-30T13:55:09;20.20;;;10.73;;
30723;SDS011;17473;52.286;20.930;2024-01-30T13:57:37;17.80;;;10.05;;
30723;SDS011;17473;52.286;20.930;2024-01-30T14:00:05;20.23;;;11.70;;
30723;SDS011;17473;52.286;20.930;2024-01-30T14:02:33;21.15;;;11.65;;
30723;SDS011;17473;52.286;20.930;2024-01-30T14:05:00;27.35;;;12.52;;
30723;SDS011;17473;52.286;20.930;2024-01-30T14:07:28;25.65;;;12.30;;
30723;SDS011;17473;52.286;20.930;2024-01-30T14:09:55;24.00;;;11.88;;
30723;SDS011;17473;52.286;20.930;2024-01-30T14:12:22;26.37;;;12.20;;